createdAt,value
2023-04-20T00:00:45.801Z,36.32
2023-04-20T00:02:47.770Z,36.05
2023-04-20T00:04:49.480Z,36.17
2023-04-20T00:06:51.055Z,36.07
2023-04-20T00:08:52.574Z,36.23
2023-04-20T00:10:54.087Z,36.12
2023-04-20T00:12:57.057Z,36.22
2023-04-20T00:14:58.590Z,36.58
2023-04-20T00:17:00.223Z,35.99
2023-04-20T00:19:02.075Z,35.99
2023-04-20T00:21:03.857Z,35.81
2023-04-20T00:23:05.564Z,36.08
2023-04-20T00:25:08.004Z,35.77
2023-04-20T00:27:09.528Z,35.96
2023-04-20T00:29:12.402Z,36.14
2023-04-20T00:31:14.098Z,36.36
2023-04-20T00:33:15.697Z,36.32
2023-04-20T00:35:17.339Z,36.19
2023-04-20T00:37:18.890Z,36.39
2023-04-20T00:39:20.382Z,36.63
2023-04-20T00:41:21.895Z,36.87
2023-04-20T00:43:24.348Z,36.87
2023-04-20T00:45:27.241Z,37.39
2023-04-20T00:47:28.781Z,37.35
2023-04-20T00:49:31.769Z,37.79
2023-04-20T00:51:34.564Z,38.17
2023-04-20T00:53:36.651Z,38.25
2023-04-20T00:55:39.172Z,38.81
2023-04-20T00:57:41.081Z,38.76
2023-04-20T00:59:42.741Z,39.44
2023-04-20T01:01:45.694Z,39.21
2023-04-20T01:03:47.659Z,39.45
2023-04-20T01:05:49.694Z,39.00
2023-04-20T01:07:51.234Z,39.40
2023-04-20T01:09:52.740Z,39.18
2023-04-20T01:11:54.317Z,39.44
2023-04-20T01:13:56.139Z,39.53
2023-04-20T01:15:58.862Z,39.66
2023-04-20T01:18:01.823Z,40.16
2023-04-20T01:20:04.277Z,40.36
2023-04-20T01:22:05.861Z,39.32
2023-04-20T01:24:09.014Z,39.35
2023-04-20T01:26:12.536Z,39.69
2023-04-20T01:28:14.113Z,39.63
2023-04-20T01:30:15.667Z,39.49
2023-04-20T01:32:17.218Z,39.40
2023-04-20T01:34:18.802Z,39.29
2023-04-20T01:36:23.297Z,39.79
2023-04-20T01:38:25.830Z,39.62
2023-04-20T01:40:28.784Z,39.50
2023-04-20T01:42:30.282Z,39.08
2023-04-20T01:44:32.071Z,39.39
2023-04-20T01:46:36.552Z,39.56
2023-04-20T01:48:38.149Z,39.83
2023-04-20T01:50:39.666Z,39.79
2023-04-20T01:52:41.185Z,39.82
2023-04-20T01:54:42.758Z,40.24
2023-04-20T01:56:45.691Z,39.81
2023-04-20T01:58:47.202Z,40.38
2023-04-20T02:00:48.844Z,40.69
2023-04-20T02:02:50.527Z,40.40
2023-04-20T02:04:52.434Z,40.14
2023-04-20T02:06:54.146Z,39.96
2023-04-20T02:08:55.690Z,39.96
2023-04-20T02:10:57.256Z,40.42
2023-04-20T02:13:00.158Z,40.30
2023-04-20T02:15:01.697Z,40.68
2023-04-20T02:17:03.231Z,40.45
2023-04-20T02:19:04.819Z,40.47
2023-04-20T02:21:06.826Z,39.82
2023-04-20T02:23:08.464Z,40.11
2023-04-20T02:25:10.483Z,40.75
2023-04-20T02:27:12.167Z,40.86
2023-04-20T02:29:15.060Z,41.13
2023-04-20T02:31:16.639Z,40.48
2023-04-20T02:33:18.328Z,40.50
2023-04-20T02:35:19.944Z,40.09
2023-04-20T02:37:21.536Z,40.22
2023-04-20T02:39:23.113Z,40.91
2023-04-20T02:41:24.636Z,40.69
2023-04-20T02:43:26.224Z,40.11
2023-04-20T02:45:29.150Z,39.90
2023-04-20T02:47:30.750Z,40.79
2023-04-20T02:49:32.311Z,41.07
2023-04-20T02:51:33.855Z,41.00
2023-04-20T02:53:35.426Z,40.99
2023-04-20T02:55:37.001Z,41.04
2023-04-20T02:57:38.566Z,41.01
2023-04-20T02:59:40.184Z,40.76
2023-04-20T03:01:43.172Z,41.14
2023-04-20T03:03:44.950Z,41.31
2023-04-20T03:05:46.623Z,41.32
2023-04-20T03:07:48.255Z,41.37
2023-04-20T03:09:49.872Z,41.64
2023-04-20T03:11:51.588Z,41.23
2023-04-20T03:13:53.165Z,41.58
2023-04-20T03:15:55.026Z,41.76
2023-04-20T03:17:57.955Z,41.67
2023-04-20T03:19:59.861Z,41.84
2023-04-20T03:22:01.509Z,41.71
2023-04-20T03:24:03.360Z,41.56
2023-04-20T03:26:05.110Z,41.78
2023-04-20T03:28:06.704Z,41.04
2023-04-20T03:30:09.401Z,41.81
2023-04-20T03:32:11.078Z,41.75
2023-04-20T03:34:14.059Z,41.83
2023-04-20T03:36:15.580Z,41.57
2023-04-20T03:38:17.132Z,41.75
2023-04-20T03:40:18.747Z,41.51
2023-04-20T03:42:20.312Z,42.17
2023-04-20T03:44:21.854Z,42.54
2023-04-20T03:46:23.719Z,43.23
2023-04-20T03:48:25.592Z,43.30
2023-04-20T03:50:28.664Z,43.19
2023-04-20T03:52:30.223Z,43.46
2023-04-20T03:54:31.833Z,42.69
2023-04-20T03:56:33.344Z,42.03
2023-04-20T03:58:34.907Z,42.55
2023-04-20T04:00:36.467Z,42.45
2023-04-20T04:02:38.574Z,42.20
2023-04-20T04:04:41.342Z,42.18
2023-04-20T04:06:44.293Z,41.32
2023-04-20T04:08:45.840Z,42.11
2023-04-20T04:10:47.487Z,42.70
2023-04-20T04:12:49.074Z,42.97
2023-04-20T04:14:50.666Z,43.32
2023-04-20T04:16:52.389Z,42.95
2023-04-20T04:18:55.101Z,43.00
2023-04-20T04:20:56.647Z,42.82
2023-04-20T04:22:59.605Z,42.78
2023-04-20T04:25:01.201Z,43.78
2023-04-20T04:27:02.756Z,44.00
2023-04-20T04:29:04.368Z,44.41
2023-04-20T04:31:06.080Z,44.29
2023-04-20T04:33:07.779Z,44.00
2023-04-20T04:35:09.446Z,43.92
2023-04-20T04:37:11.309Z,43.45
2023-04-20T04:39:14.271Z,43.53
2023-04-20T04:41:15.850Z,43.42
2023-04-20T04:43:17.601Z,43.80
2023-04-20T04:45:19.246Z,43.81
2023-04-20T04:47:21.100Z,43.71
2023-04-20T04:49:23.372Z,43.84
2023-04-20T04:51:24.974Z,43.78
2023-04-20T04:53:26.576Z,43.92
2023-04-20T04:55:29.746Z,43.75
2023-04-20T04:57:31.300Z,43.57
2023-04-20T04:59:32.904Z,43.43
2023-04-20T05:01:34.500Z,43.47
2023-04-20T05:03:36.319Z,43.88
2023-04-20T05:05:38.247Z,43.65
2023-04-20T05:07:39.797Z,43.78
2023-04-20T05:09:41.627Z,43.36
2023-04-20T05:11:44.589Z,43.49
2023-04-20T05:13:46.170Z,43.55
2023-04-20T05:15:47.690Z,43.72
2023-04-20T05:17:49.474Z,43.48
2023-04-20T05:19:51.069Z,43.25
2023-04-20T05:21:52.617Z,43.42
2023-04-20T05:23:54.278Z,43.36
2023-04-20T05:25:55.856Z,43.33
2023-04-20T05:27:59.085Z,43.53
2023-04-20T05:32:05.777Z,43.94
2023-04-20T05:34:07.363Z,44.06
2023-04-20T05:36:09.499Z,43.97
2023-04-20T05:38:11.071Z,43.65
2023-04-20T05:40:12.939Z,44.07
2023-04-20T05:42:14.521Z,43.41
2023-04-20T05:44:17.415Z,44.41
2023-04-20T05:46:19.166Z,45.47
2023-04-20T05:48:20.864Z,44.08
2023-04-20T05:50:23.071Z,44.49
2023-04-20T05:52:24.767Z,44.79
2023-04-20T05:54:26.407Z,45.45
2023-04-20T05:56:28.013Z,44.59
2023-04-20T05:58:32.299Z,44.61
2023-04-20T06:00:35.284Z,44.20
2023-04-20T06:02:37.074Z,43.94
2023-04-20T06:04:38.870Z,44.07
2023-04-20T06:06:40.645Z,44.66
2023-04-20T06:08:42.222Z,44.84
2023-04-20T06:10:43.768Z,43.78
2023-04-20T06:12:45.465Z,43.88
2023-04-20T06:14:47.038Z,44.14
2023-04-20T06:16:50.078Z,44.02
2023-04-20T06:18:51.761Z,44.47
2023-04-20T06:20:53.731Z,44.79
2023-04-20T06:22:56.613Z,44.32
2023-04-20T06:24:58.206Z,44.74
2023-04-20T06:26:59.694Z,44.63
2023-04-20T06:29:01.227Z,45.04
2023-04-20T06:31:03.251Z,45.11
2023-04-20T06:33:06.209Z,45.15
2023-04-20T06:35:08.409Z,45.38
2023-04-20T06:37:10.097Z,45.30
2023-04-20T06:39:11.852Z,44.98
2023-04-20T06:41:13.979Z,45.13
2023-04-20T06:43:15.621Z,45.32
2023-04-20T06:45:17.316Z,45.25
2023-04-20T06:47:19.037Z,45.70
2023-04-20T06:49:22.029Z,45.24
2023-04-20T06:51:23.586Z,47.21
2023-04-20T06:53:25.131Z,45.08
2023-04-20T06:55:26.857Z,44.47
2023-04-20T06:57:28.452Z,44.71
2023-04-20T06:59:30.128Z,44.49
2023-04-20T07:01:32.011Z,44.96
2023-04-20T07:03:33.778Z,44.21
2023-04-20T07:05:42.931Z,44.09
2023-04-20T07:07:44.681Z,44.65
2023-04-20T07:09:46.297Z,43.44
2023-04-20T07:11:47.847Z,43.23
2023-04-20T07:13:49.449Z,43.88
2023-04-20T07:15:51.636Z,42.64
2023-04-20T07:17:53.295Z,42.22
2023-04-20T07:19:55.007Z,42.18
2023-04-20T07:21:58.030Z,41.66
2023-04-20T07:23:59.609Z,42.00
2023-04-20T07:26:01.208Z,42.38
2023-04-20T07:28:02.720Z,43.02
2023-04-20T07:30:05.890Z,41.34
2023-04-20T07:32:07.541Z,42.01
2023-04-20T07:34:09.199Z,41.89
2023-04-20T07:36:10.915Z,41.24
2023-04-20T07:38:13.894Z,41.69
2023-04-20T07:40:15.456Z,42.66
2023-04-20T07:42:17.040Z,41.77
2023-04-20T07:44:18.656Z,40.51
2023-04-20T07:46:20.842Z,40.58
2023-04-20T07:48:22.423Z,40.34
2023-04-20T07:50:24.123Z,40.76
2023-04-20T07:52:26.098Z,41.73
2023-04-20T07:54:29.107Z,40.29
2023-04-20T07:56:30.683Z,40.01
2023-04-20T07:58:32.232Z,40.70
2023-04-20T08:00:33.775Z,40.61
2023-04-20T08:02:35.592Z,40.29
2023-04-20T08:04:37.481Z,39.61
2023-04-20T08:06:39.313Z,39.70
2023-04-20T08:08:40.844Z,39.23
2023-04-20T08:10:43.769Z,39.10
2023-04-20T08:12:45.339Z,41.18
2023-04-20T08:14:46.951Z,40.71
2023-04-20T08:16:48.613Z,40.28
2023-04-20T08:18:50.104Z,38.62
2023-04-20T08:20:51.685Z,38.40
2023-04-20T08:22:53.402Z,38.71
2023-04-20T08:24:54.927Z,38.81
2023-04-20T08:26:58.015Z,39.09
2023-04-20T08:29:00.141Z,38.91
2023-04-20T08:31:01.916Z,38.26
2023-04-20T08:33:03.869Z,38.62
2023-04-20T08:35:05.952Z,38.60
2023-04-20T08:37:08.691Z,38.46
2023-04-20T08:39:12.468Z,39.06
2023-04-20T08:41:14.586Z,38.90
2023-04-20T08:43:17.646Z,39.61
2023-04-20T08:45:19.436Z,38.87
2023-04-20T08:47:21.377Z,38.74
2023-04-20T08:49:23.404Z,38.98
2023-04-20T08:51:24.959Z,39.16
2023-04-20T08:53:26.539Z,39.05
2023-04-20T08:55:28.304Z,38.80
2023-04-20T08:57:29.876Z,38.47
2023-04-20T08:59:33.121Z,38.04
2023-04-20T09:01:36.013Z,38.58
2023-04-20T09:03:39.881Z,38.50
2023-04-20T09:05:44.678Z,38.29
2023-04-20T09:07:51.529Z,39.80
2023-04-20T09:09:56.675Z,39.21
2023-04-20T09:12:02.334Z,38.91
2023-04-20T09:14:05.931Z,38.98
2023-04-20T09:16:13.332Z,38.83
2023-04-20T09:18:16.030Z,38.42
2023-04-20T09:20:27.513Z,39.30
2023-04-20T09:22:30.176Z,39.66
2023-04-20T09:24:33.657Z,44.53
2023-04-20T09:26:36.095Z,40.93
2023-04-20T09:28:38.432Z,39.90
2023-04-20T09:30:41.651Z,43.67
2023-04-20T09:32:46.910Z,43.87
2023-04-20T09:34:48.551Z,40.96
2023-04-20T09:36:52.342Z,47.04
2023-04-20T09:39:05.866Z,42.38
2023-04-20T09:41:08.480Z,38.35
2023-04-20T09:43:17.653Z,43.81
2023-04-20T09:45:19.606Z,40.46
2023-04-20T09:47:22.559Z,39.29
2023-04-20T09:49:25.710Z,46.20
2023-04-20T09:51:27.822Z,44.79
2023-04-20T09:53:31.305Z,44.26
2023-04-20T09:55:33.526Z,39.18
2023-04-20T09:57:36.256Z,38.33
2023-04-20T09:59:40.591Z,44.71
2023-04-20T10:01:42.228Z,37.90
2023-04-20T10:03:44.965Z,38.68
2023-04-20T10:05:48.159Z,37.70
2023-04-20T10:07:59.296Z,37.29
2023-04-20T10:10:08.781Z,38.65
2023-04-20T10:12:10.484Z,39.69
2023-04-20T10:14:16.793Z,38.44
2023-04-20T10:16:19.214Z,38.33
2023-04-20T10:18:22.464Z,38.05
2023-04-20T10:20:26.065Z,38.49
2023-04-20T10:22:31.407Z,38.81
2023-04-20T10:24:33.038Z,39.06
2023-04-20T10:26:38.222Z,39.44
2023-04-20T10:28:41.313Z,40.21
2023-04-20T10:30:50.965Z,39.70
2023-04-20T10:33:03.536Z,39.86
2023-04-20T10:35:07.113Z,39.83
2023-04-20T10:37:09.276Z,39.53
2023-04-20T10:39:19.194Z,40.21
2023-04-20T10:41:21.323Z,39.02
2023-04-20T10:43:23.414Z,39.33
2023-04-20T10:45:33.872Z,39.73
2023-04-20T10:47:35.517Z,39.25
2023-04-20T10:49:37.147Z,40.81
2023-04-20T10:51:46.666Z,41.18
2023-04-20T10:53:58.497Z,39.84
2023-04-20T10:56:01.817Z,38.91
2023-04-20T10:58:03.447Z,39.95
2023-04-20T11:00:15.226Z,40.43
2023-04-20T11:02:16.997Z,40.87
2023-04-20T11:04:19.332Z,40.87
2023-04-20T11:06:22.702Z,39.91
2023-04-20T11:08:24.304Z,40.84
2023-04-20T11:10:38.078Z,40.29
2023-04-20T11:12:41.057Z,39.69
2023-04-20T11:14:52.171Z,38.20
2023-04-20T11:16:54.815Z,38.28
2023-04-20T11:18:56.448Z,38.78
2023-04-20T11:20:58.124Z,38.34
2023-04-20T11:22:59.673Z,38.35
2023-04-20T11:25:04.610Z,37.80
2023-04-20T11:27:06.261Z,37.97
2023-04-20T11:29:09.236Z,38.54
2023-04-20T11:31:16.905Z,36.67
2023-04-20T11:33:25.989Z,36.27
2023-04-20T11:35:27.630Z,36.61
2023-04-20T11:37:29.418Z,37.24
2023-04-20T11:39:31.063Z,36.61
2023-04-20T11:41:32.662Z,37.32
2023-04-20T11:43:35.050Z,35.79
2023-04-20T11:45:38.006Z,35.43
2023-04-20T11:47:39.653Z,37.42
2023-04-20T11:49:41.254Z,37.22
2023-04-20T11:51:42.970Z,37.92
2023-04-20T11:53:44.787Z,39.15
2023-04-20T11:55:46.362Z,35.17
2023-04-20T11:57:47.946Z,34.63
2023-04-20T11:59:49.685Z,34.65
2023-04-20T12:01:52.724Z,34.91
2023-04-20T12:03:54.635Z,35.33
2023-04-20T12:05:56.576Z,35.09
2023-04-20T12:07:58.212Z,35.21
2023-04-20T12:09:59.891Z,34.40
2023-04-20T12:12:01.853Z,34.87
2023-04-20T12:14:03.370Z,34.92
2023-04-20T12:16:05.754Z,35.11
2023-04-20T12:18:08.982Z,36.37
2023-04-20T12:20:11.038Z,36.81
2023-04-20T12:22:12.736Z,34.89
2023-04-20T12:24:14.393Z,35.28
2023-04-20T12:26:16.041Z,35.56
2023-04-20T12:28:17.741Z,35.13
2023-04-20T12:30:19.536Z,35.53
2023-04-20T12:32:21.171Z,36.35
2023-04-20T12:34:25.715Z,36.37
2023-04-20T12:36:27.502Z,36.41
2023-04-20T12:38:29.127Z,36.96
2023-04-20T12:40:30.884Z,36.85
2023-04-20T12:42:32.571Z,36.98
2023-04-20T12:44:34.337Z,36.90
2023-04-20T12:46:35.977Z,37.07
2023-04-20T12:48:37.583Z,37.12
2023-04-20T12:50:40.456Z,36.65
2023-04-20T12:52:42.030Z,36.84
2023-04-20T12:54:44.231Z,37.04
2023-04-20T12:56:46.032Z,36.79
2023-04-20T12:58:47.653Z,37.08
2023-04-20T13:00:49.242Z,36.64
2023-04-20T13:02:51.243Z,36.59
2023-04-20T13:04:53.010Z,35.20
2023-04-20T13:06:55.916Z,32.45
2023-04-20T13:08:57.492Z,32.86
2023-04-20T13:10:59.145Z,33.58
2023-04-20T13:13:00.736Z,32.66
2023-04-20T13:15:02.336Z,32.49
2023-04-20T13:17:03.978Z,33.41
2023-04-20T13:19:05.591Z,32.81
2023-04-20T13:21:08.332Z,31.32
2023-04-20T13:23:11.341Z,33.88
2023-04-20T13:25:12.918Z,32.72
2023-04-20T13:27:14.656Z,32.90
2023-04-20T13:29:16.611Z,33.13
2023-04-20T13:31:18.741Z,33.51
2023-04-20T13:33:20.352Z,32.43
2023-04-20T13:35:22.058Z,32.11
2023-04-20T13:37:23.820Z,32.67
2023-04-20T13:39:26.832Z,33.31
2023-04-20T13:41:28.594Z,34.23
2023-04-20T13:43:31.637Z,34.92
2023-04-20T13:45:33.274Z,35.33
2023-04-20T13:47:35.081Z,36.47
2023-04-20T13:49:44.143Z,35.61
2023-04-20T13:51:45.667Z,36.30
2023-04-20T13:53:47.317Z,36.92
2023-04-20T13:55:50.292Z,36.69
2023-04-20T13:57:51.898Z,37.48
2023-04-20T13:59:53.585Z,37.66
2023-04-20T14:01:55.195Z,38.01
2023-04-20T14:03:57.124Z,38.29
2023-04-20T14:05:58.847Z,37.63
2023-04-20T14:08:01.091Z,38.32
2023-04-20T14:10:02.883Z,38.88
2023-04-20T14:12:06.114Z,39.17
2023-04-20T14:14:07.667Z,39.28
2023-04-20T14:16:12.955Z,38.63
2023-04-20T14:18:14.701Z,37.90
2023-04-20T14:20:16.245Z,38.62
2023-04-20T14:22:17.996Z,37.62
2023-04-20T14:24:20.036Z,38.41
2023-04-20T14:26:21.894Z,37.55
2023-04-20T14:28:25.148Z,37.32
2023-04-20T14:30:26.833Z,38.31
2023-04-20T14:32:30.477Z,36.87
2023-04-20T14:34:32.200Z,36.51
2023-04-20T14:36:33.846Z,37.47
2023-04-20T14:38:35.803Z,37.36
2023-04-20T14:40:37.552Z,37.18
2023-04-20T14:42:39.178Z,37.35
2023-04-20T14:44:42.205Z,37.09
2023-04-20T14:46:44.313Z,38.15
2023-04-20T14:48:46.359Z,37.86
2023-04-20T14:50:48.023Z,38.24
2023-04-20T14:52:49.614Z,38.80
2023-04-20T14:54:51.291Z,39.11
2023-04-20T14:56:53.050Z,39.52
2023-04-20T14:58:54.880Z,39.67
2023-04-20T15:00:57.772Z,40.01
2023-04-20T15:02:59.546Z,39.15
2023-04-20T15:05:01.643Z,38.74
2023-04-20T15:07:03.378Z,38.89
2023-04-20T15:09:05.018Z,39.14
2023-04-20T15:11:06.630Z,38.94
2023-04-20T15:13:08.246Z,39.45
2023-04-20T15:15:10.618Z,38.37
2023-04-20T15:17:13.534Z,38.56
2023-04-20T15:19:15.175Z,38.70
2023-04-20T15:21:16.756Z,38.42
2023-04-20T15:23:18.406Z,38.24
2023-04-20T15:25:19.990Z,38.12
2023-04-20T15:27:21.582Z,39.06
2023-04-20T15:29:23.222Z,38.61
2023-04-20T15:31:25.083Z,38.39
2023-04-20T15:33:28.063Z,38.40
2023-04-20T15:35:29.559Z,38.35
2023-04-20T15:37:31.387Z,38.52
2023-04-20T15:39:32.994Z,39.14
2023-04-20T15:41:34.808Z,38.87
2023-04-20T15:43:36.650Z,38.64
2023-04-20T15:45:38.300Z,41.22
2023-04-20T15:47:39.963Z,42.99
2023-04-20T15:49:42.970Z,43.90
2023-04-20T15:51:44.572Z,44.67
2023-04-20T15:53:46.288Z,44.91
2023-04-20T15:55:47.966Z,42.20
2023-04-20T15:57:49.570Z,41.37
2023-04-20T15:59:51.324Z,41.37
2023-04-20T16:01:53.300Z,41.08
2023-04-20T16:03:55.241Z,40.87
2023-04-20T16:05:58.397Z,40.85
2023-04-20T16:08:00.162Z,40.88
2023-04-20T16:10:01.899Z,40.80
2023-04-20T16:12:03.792Z,40.31
2023-04-20T16:14:05.508Z,40.58
2023-04-20T16:16:07.931Z,40.89
2023-04-20T16:18:09.554Z,40.87
2023-04-20T16:20:12.084Z,40.23
2023-04-20T16:22:15.072Z,41.18
2023-04-20T16:24:16.777Z,40.36
2023-04-20T16:26:18.658Z,40.23
2023-04-20T16:28:20.290Z,39.94
2023-04-20T16:30:22.320Z,40.21
2023-04-20T16:32:24.034Z,39.71
2023-04-20T16:34:25.607Z,39.45
2023-04-20T16:36:27.183Z,38.85
2023-04-20T16:38:30.170Z,39.16
2023-04-20T16:40:31.854Z,39.22
2023-04-20T16:42:33.448Z,39.47
2023-04-20T16:44:35.208Z,39.64
2023-04-20T16:46:36.808Z,39.70
2023-04-20T16:48:38.449Z,40.29
2023-04-20T16:50:40.936Z,39.90
2023-04-20T16:52:43.756Z,40.72
2023-04-20T16:54:46.764Z,40.23
2023-04-20T16:56:48.339Z,40.73
2023-04-20T16:58:49.936Z,40.13
2023-04-20T17:00:51.609Z,40.74
2023-04-20T17:02:53.397Z,40.87
2023-04-20T17:04:55.062Z,40.92
2023-04-20T17:06:56.639Z,40.43
2023-04-20T17:08:58.310Z,40.68
2023-04-20T17:11:01.577Z,41.14
2023-04-20T17:13:03.264Z,41.23
2023-04-20T17:15:05.758Z,41.22
2023-04-20T17:17:07.510Z,41.84
2023-04-20T17:19:09.098Z,41.98
2023-04-20T17:21:10.689Z,41.71
2023-04-20T17:23:12.288Z,42.20
2023-04-20T17:25:14.315Z,42.30
2023-04-20T17:27:17.389Z,42.55
2023-04-20T17:29:18.951Z,42.77
2023-04-20T17:31:20.624Z,43.02
2023-04-20T17:33:22.268Z,43.28
2023-04-20T17:35:23.917Z,43.14
2023-04-20T17:37:25.457Z,43.04
2023-04-20T17:39:27.042Z,43.24
2023-04-20T17:41:28.677Z,43.77
2023-04-20T17:43:31.603Z,44.07
2023-04-20T17:45:33.234Z,44.09
2023-04-20T17:47:34.929Z,45.89
2023-04-20T17:49:36.595Z,44.86
2023-04-20T17:51:38.144Z,44.85
2023-04-20T17:53:39.795Z,45.08
2023-04-20T17:55:41.362Z,45.29
2023-04-20T17:57:42.917Z,45.42
2023-04-20T17:59:45.842Z,45.92
2023-04-20T18:01:47.402Z,46.06
2023-04-20T18:03:49.094Z,46.55
2023-04-20T18:05:51.681Z,46.27
2023-04-20T18:07:54.099Z,46.34
2023-04-20T18:09:55.869Z,46.10
2023-04-20T18:11:57.408Z,46.29
2023-04-20T18:13:59.767Z,46.47
2023-04-20T18:16:02.892Z,46.56
2023-04-20T18:18:04.711Z,46.51
2023-04-20T18:20:07.092Z,47.14
2023-04-20T18:22:08.777Z,46.86
2023-04-20T18:24:10.385Z,47.05
2023-04-20T18:26:11.997Z,47.50
2023-04-20T18:28:13.554Z,46.89
2023-04-20T18:30:15.953Z,47.73
2023-04-20T18:32:18.995Z,47.36
2023-04-20T18:34:20.895Z,47.31
2023-04-20T18:36:22.692Z,47.47
2023-04-20T18:38:24.354Z,47.92
2023-04-20T18:40:25.927Z,47.52
2023-04-20T18:42:27.683Z,47.36
2023-04-20T18:44:29.313Z,47.33
2023-04-20T18:46:31.198Z,46.97
2023-04-20T18:48:34.145Z,47.16
2023-04-20T18:50:35.719Z,47.64
2023-04-20T18:52:37.281Z,47.45
2023-04-20T18:54:38.898Z,47.37
2023-04-20T18:56:40.497Z,47.09
2023-04-20T18:58:42.067Z,47.42
2023-04-20T19:00:43.675Z,47.78
2023-04-20T19:02:45.325Z,47.91
2023-04-20T19:04:48.421Z,47.59
2023-04-20T19:06:50.050Z,47.40
2023-04-20T19:08:51.664Z,47.79
2023-04-20T19:10:53.264Z,47.56
2023-04-20T19:12:55.565Z,47.39
2023-04-20T19:14:57.141Z,47.24
2023-04-20T19:16:58.900Z,47.53
2023-04-20T19:19:00.950Z,47.68
2023-04-20T19:21:04.084Z,47.35
2023-04-20T19:23:05.838Z,47.49
2023-04-20T19:25:08.153Z,47.85
2023-04-20T19:27:10.024Z,47.47
2023-04-20T19:29:11.662Z,48.17
2023-04-20T19:31:13.480Z,48.80
2023-04-20T19:33:15.108Z,48.74
2023-04-20T19:35:16.843Z,49.67
2023-04-20T19:37:19.840Z,50.13
2023-04-20T19:39:21.497Z,51.63
2023-04-20T19:41:23.026Z,51.13
2023-04-20T19:43:24.683Z,51.01
2023-04-20T19:45:26.323Z,51.00
2023-04-20T19:47:27.971Z,52.00
2023-04-20T19:49:29.530Z,52.42
2023-04-20T19:51:31.679Z,52.41
2023-04-20T19:53:34.628Z,53.30
2023-04-20T19:55:36.175Z,53.95
2023-04-20T19:57:37.700Z,53.98
2023-04-20T19:59:39.252Z,54.12
2023-04-20T20:01:40.866Z,54.33
2023-04-20T20:03:42.788Z,55.10
2023-04-20T20:05:44.605Z,55.59
2023-04-20T20:07:46.164Z,54.53
2023-04-20T20:09:49.092Z,54.09
2023-04-20T20:11:50.706Z,54.74
2023-04-20T20:13:52.406Z,55.28
2023-04-20T20:15:54.053Z,54.68
2023-04-20T20:17:55.720Z,56.16
2023-04-20T20:19:57.270Z,56.62
2023-04-20T20:21:58.854Z,57.29
2023-04-20T20:24:00.501Z,57.35
2023-04-20T20:26:03.501Z,56.73
2023-04-20T20:28:05.123Z,57.90
2023-04-20T20:30:08.093Z,57.60
2023-04-20T20:32:09.690Z,59.25
2023-04-20T20:34:11.263Z,58.87
2023-04-20T20:36:12.822Z,59.69
2023-04-20T20:38:14.461Z,58.78
2023-04-20T20:40:16.133Z,58.76
2023-04-20T20:42:19.175Z,59.96
2023-04-20T20:44:20.946Z,58.85
2023-04-20T20:46:22.636Z,59.81
2023-04-20T20:48:24.300Z,59.47
2023-04-20T20:50:25.900Z,59.41
2023-04-20T20:52:27.498Z,59.47
2023-04-20T20:54:29.200Z,59.71
2023-04-20T20:56:30.765Z,59.81
2023-04-20T20:58:33.898Z,59.28
2023-04-20T21:00:35.572Z,58.93
2023-04-20T21:02:37.880Z,60.65
2023-04-20T21:04:39.583Z,60.67
2023-04-20T21:06:41.178Z,60.18
2023-04-20T21:08:42.866Z,60.63
2023-04-20T21:10:44.497Z,60.98
2023-04-20T21:12:46.076Z,61.53
2023-04-20T21:14:49.006Z,61.09
2023-04-20T21:16:50.591Z,61.63
2023-04-20T21:18:52.183Z,61.39
2023-04-20T21:20:53.799Z,61.18
2023-04-20T21:22:55.311Z,61.78
2023-04-20T21:24:57.008Z,62.40
2023-04-20T21:26:58.599Z,61.58
2023-04-20T21:29:00.162Z,62.48
2023-04-20T21:31:03.296Z,61.27
2023-04-20T21:33:04.885Z,61.02
2023-04-20T21:35:07.291Z,61.06
2023-04-20T21:37:08.826Z,61.65
2023-04-20T21:39:10.348Z,61.43
2023-04-20T21:41:12.359Z,60.84
2023-04-20T21:43:13.932Z,61.00
2023-04-20T21:45:15.532Z,60.97
2023-04-20T21:47:18.433Z,60.67
2023-04-20T21:49:20.169Z,61.81
2023-04-20T21:51:21.960Z,61.38
2023-04-20T21:53:23.537Z,61.17
2023-04-20T21:55:25.194Z,61.26
2023-04-20T21:57:28.932Z,61.52
2023-04-20T21:59:30.445Z,61.92
2023-04-20T22:01:32.083Z,61.39
2023-04-20T22:03:36.173Z,60.33
2023-04-20T22:05:39.023Z,61.03
2023-04-20T22:07:40.620Z,60.21
2023-04-20T22:09:42.349Z,59.99
2023-04-20T22:11:43.940Z,60.51
2023-04-20T22:13:45.536Z,60.57
2023-04-20T22:15:47.205Z,59.87
2023-04-20T22:17:49.330Z,60.71
2023-04-20T22:19:52.274Z,61.05
2023-04-20T22:21:53.842Z,60.57
2023-04-20T22:23:55.413Z,61.03
2023-04-20T22:25:56.986Z,61.01
2023-04-20T22:27:58.506Z,61.33
2023-04-20T22:30:00.288Z,61.12
2023-04-20T22:32:01.886Z,60.04
2023-04-20T22:34:03.456Z,59.99
2023-04-20T22:36:07.852Z,60.12
2023-04-20T22:38:09.457Z,59.88
2023-04-20T22:40:11.387Z,60.45
2023-04-20T22:42:12.950Z,60.25
2023-04-20T22:44:14.581Z,58.79
2023-04-20T22:46:16.207Z,58.94
2023-04-20T22:48:17.766Z,57.34
2023-04-20T22:50:19.554Z,57.27
2023-04-20T22:52:22.653Z,57.10
2023-04-20T22:54:24.387Z,56.38
2023-04-20T22:56:26.014Z,56.37
2023-04-20T22:58:27.593Z,57.47
2023-04-20T23:00:29.335Z,58.04
2023-04-20T23:02:31.042Z,56.72
2023-04-20T23:04:32.756Z,57.33
2023-04-20T23:06:34.376Z,58.41
2023-04-20T23:08:37.382Z,57.17
2023-04-20T23:10:39.009Z,58.23
2023-04-20T23:12:40.634Z,57.31
2023-04-20T23:14:42.405Z,58.54
2023-04-20T23:16:44.271Z,58.94
2023-04-20T23:18:45.943Z,59.63
2023-04-20T23:20:47.568Z,60.13
2023-04-20T23:22:49.043Z,59.88
2023-04-20T23:24:51.940Z,59.61
2023-04-20T23:26:53.628Z,59.50
2023-04-20T23:28:55.287Z,59.45
2023-04-20T23:30:56.907Z,59.74
2023-04-20T23:32:58.561Z,59.71
2023-04-20T23:35:00.199Z,60.10
2023-04-20T23:37:01.820Z,59.51
2023-04-20T23:39:03.784Z,59.98
2023-04-20T23:41:10.062Z,59.94
2023-04-20T23:43:11.653Z,59.54
2023-04-20T23:45:13.187Z,60.21
2023-04-20T23:47:14.781Z,60.35
2023-04-20T23:49:16.430Z,60.12
2023-04-20T23:51:18.267Z,60.16
2023-04-20T23:53:19.818Z,60.37
2023-04-20T23:55:21.472Z,60.22
2023-04-20T23:57:24.569Z,60.48
2023-04-20T23:59:26.085Z,60.54
